Allen, Maryland
Current Conditions -  °F | °C
As of 9:01 AM on Tuesday 27 Jan 2015 (Local Time) from KSBY Reporting Station
Overcast Overcast  
Wind Chill: 22°   Ceiling: 3300
Heat Index: 32°   Visibility: 10mi
Dew Point: 22°   Wind: 15mph
Humidity: 66%   Direction: 350°N
Pressure: 29.74"   Gusts: 18mph
Location:  38.29°N, 75.69°W
Report Text: KSBY 271401Z 35013G16KT 10SM SCT023 OVC033 00/M06 A2974 RMK AO2 T00001056
Loading
Personal Weather Stations






























Interactive Weather Map New forecast layout! Learn more

10-Day Weather Forecast

Advertisements
Track Severe Weather on mobile